This is the latest recevied weather packets stored in our database for station/object N4OGP-WX. If no packets are shown the sender has not sent any weather packets the latest 10 day(s).
| Time | Temp. | Humidity | Pressure | Rain* | Wind** | Luminosity | Snow |
|---|---|---|---|---|---|---|---|
| 1778171518 | 24.44° C | 94% | 1011.5 hPa | 0 mm | - | - | - |
| 1778171458 | 24.44° C | 94% | 1011.4 hPa | 0 mm | - | - | - |
| 1778171368 | 23.89° C | 42% | 1020.4 hPa | 0 mm | - | - | - |
| 1778171308 | 23.89° C | 42% | 1020.4 hPa | 0 mm | - | - | - |
| 1778171218 | 24.44° C | 94% | 1010.9 hPa | 0 mm | - | - | - |
| 1778171128 | 24.44° C | 93% | 1010.9 hPa | 0 mm | - | - | - |
| 1778171068 | 23.89° C | 42% | 1020.4 hPa | 0 mm | - | - | - |
| 1778171008 | 24.44° C | 93% | 1010.9 hPa | 0 mm | - | - | - |
| 1778170948 | 23.89° C | 42% | 1020.4 hPa | 0 mm | - | - | - |
| 1778170858 | 24.44° C | 93% | 1011 hPa | 0 mm | - | - | - |
| 1778170768 | 24.44° C | 93% | 1011.1 hPa | 0 mm | - | - | - |
| 1778170708 | 24.44° C | 93% | 1011.2 hPa | 0 mm | - | - | - |
| 1778170618 | 23.89° C | 42% | 1020.4 hPa | 0 mm | - | - | - |
| 1778170558 | 24.44° C | 93% | 1011.4 hPa | 0 mm | - | - | - |
| 1778170498 | 23.89° C | 42% | 1020.4 hPa | 0 mm | - | - | - |
| 1778170438 | 23.89° C | 42% | 1020.4 hPa | 0 mm | - | - | - |
| 1778170348 | 24.44° C | 92% | 1011.6 hPa | 0 mm | - | - | - |
| 1778170258 | 24.44° C | 92% | 1011.6 hPa | 0 mm | - | - | - |
| 1778170168 | 23.89° C | 42% | 1020.4 hPa | 0 mm | - | - | - |
| 1778170108 | 25° C | 92% | 1011.6 hPa | 0 mm | - | - | - |
| 1778170018 | 25° C | 92% | 1011.6 hPa | 0 mm | - | - | - |
| 1778169928 | 23.89° C | 42% | 1020.4 hPa | 0 mm | - | - | - |
| 1778169868 | 25° C | 92% | 1011.5 hPa | 0 mm | - | - | - |
| 1778169778 | 23.89° C | 42% | 1020.4 hPa | 0 mm | - | - | - |
| 1778169718 | 25° C | 92% | 1011.5 hPa | 0 mm | - | - | - |
* Rain latest hour (hover to see other rain measurements)
** Current wind speed in m/s (hover to see current wind gust speed)